sensor_id;sensor_type;location;lat;lon;timestamp;P1;durP1;ratioP1;P2;durP2;ratioP2
49458;SDS011;35354;51.296;16.924;2023-03-01T00:01:44;94.60;;;50.95;;
49458;SDS011;35354;51.296;16.924;2023-03-01T00:04:10;95.10;;;50.83;;
49458;SDS011;35354;51.296;16.924;2023-03-01T00:06:35;87.25;;;48.58;;
49458;SDS011;35354;51.296;16.924;2023-03-01T00:09:00;94.65;;;52.78;;
49458;SDS011;35354;51.296;16.924;2023-03-01T00:11:27;89.63;;;48.08;;
49458;SDS011;35354;51.296;16.924;2023-03-01T00:13:55;89.88;;;49.88;;
49458;SDS011;35354;51.296;16.924;2023-03-01T00:16:23;93.38;;;50.40;;
49458;SDS011;35354;51.296;16.924;2023-03-01T00:18:51;93.00;;;49.20;;
49458;SDS011;35354;51.296;16.924;2023-03-01T00:21:17;94.45;;;50.25;;
49458;SDS011;35354;51.296;16.924;2023-03-01T00:23:44;131.55;;;63.25;;
49458;SDS011;35354;51.296;16.924;2023-03-01T00:26:11;154.27;;;70.22;;
49458;SDS011;35354;51.296;16.924;2023-03-01T00:28:38;107.30;;;53.03;;
49458;SDS011;35354;51.296;16.924;2023-03-01T00:31:04;103.18;;;53.38;;
49458;SDS011;35354;51.296;16.924;2023-03-01T00:33:31;95.28;;;53.03;;
49458;SDS011;35354;51.296;16.924;2023-03-01T00:36:00;98.38;;;50.95;;
49458;SDS011;35354;51.296;16.924;2023-03-01T00:38:25;97.13;;;50.85;;
49458;SDS011;35354;51.296;16.924;2023-03-01T00:40:51;90.82;;;48.33;;
49458;SDS011;35354;51.296;16.924;2023-03-01T00:43:17;95.18;;;48.67;;
49458;SDS011;35354;51.296;16.924;2023-03-01T00:45:42;89.28;;;48.35;;
49458;SDS011;35354;51.296;16.924;2023-03-01T00:48:08;93.13;;;49.70;;
49458;SDS011;35354;51.296;16.924;2023-03-01T00:50:33;90.55;;;48.85;;
49458;SDS011;35354;51.296;16.924;2023-03-01T00:52:59;86.80;;;46.03;;
49458;SDS011;35354;51.296;16.924;2023-03-01T00:55:24;83.20;;;45.15;;
49458;SDS011;35354;51.296;16.924;2023-03-01T00:57:50;85.07;;;45.15;;
49458;SDS011;35354;51.296;16.924;2023-03-01T01:00:16;85.40;;;45.97;;
49458;SDS011;35354;51.296;16.924;2023-03-01T01:02:42;87.15;;;46.80;;
49458;SDS011;35354;51.296;16.924;2023-03-01T01:05:07;82.57;;;45.38;;
49458;SDS011;35354;51.296;16.924;2023-03-01T01:07:33;85.80;;;47.55;;
49458;SDS011;35354;51.296;16.924;2023-03-01T01:09:58;89.13;;;51.30;;
49458;SDS011;35354;51.296;16.924;2023-03-01T01:12:24;97.32;;;51.85;;
49458;SDS011;35354;51.296;16.924;2023-03-01T01:14:49;92.22;;;50.25;;
49458;SDS011;35354;51.296;16.924;2023-03-01T01:17:14;87.43;;;47.50;;
49458;SDS011;35354;51.296;16.924;2023-03-01T01:19:40;89.47;;;49.22;;
49458;SDS011;35354;51.296;16.924;2023-03-01T01:22:05;81.85;;;45.95;;
49458;SDS011;35354;51.296;16.924;2023-03-01T01:24:30;83.50;;;46.72;;
49458;SDS011;35354;51.296;16.924;2023-03-01T01:26:56;83.78;;;45.90;;
49458;SDS011;35354;51.296;16.924;2023-03-01T01:29:21;80.47;;;47.25;;
49458;SDS011;35354;51.296;16.924;2023-03-01T01:31:47;82.55;;;46.60;;
49458;SDS011;35354;51.296;16.924;2023-03-01T01:34:17;87.70;;;47.63;;
49458;SDS011;35354;51.296;16.924;2023-03-01T01:39:13;86.55;;;45.30;;
49458;SDS011;35354;51.296;16.924;2023-03-01T01:41:39;76.47;;;41.85;;
49458;SDS011;35354;51.296;16.924;2023-03-01T01:44:11;87.38;;;44.22;;
49458;SDS011;35354;51.296;16.924;2023-03-01T01:49:31;81.38;;;44.05;;
49458;SDS011;35354;51.296;16.924;2023-03-01T01:52:02;85.28;;;45.63;;
49458;SDS011;35354;51.296;16.924;2023-03-01T01:54:31;89.88;;;43.78;;
49458;SDS011;35354;51.296;16.924;2023-03-01T01:57:07;98.60;;;46.47;;
49458;SDS011;35354;51.296;16.924;2023-03-01T01:59:37;92.50;;;44.00;;
49458;SDS011;35354;51.296;16.924;2023-03-01T02:02:04;85.63;;;43.55;;
49458;SDS011;35354;51.296;16.924;2023-03-01T02:04:30;80.10;;;42.42;;
49458;SDS011;35354;51.296;16.924;2023-03-01T02:06:58;71.90;;;41.25;;
49458;SDS011;35354;51.296;16.924;2023-03-01T02:09:28;110.00;;;48.58;;
49458;SDS011;35354;51.296;16.924;2023-03-01T02:11:55;104.18;;;45.60;;
49458;SDS011;35354;51.296;16.924;2023-03-01T02:14:21;97.13;;;43.38;;
49458;SDS011;35354;51.296;16.924;2023-03-01T02:16:46;85.10;;;42.33;;
49458;SDS011;35354;51.296;16.924;2023-03-01T02:19:17;83.15;;;41.47;;
49458;SDS011;35354;51.296;16.924;2023-03-01T02:22:00;84.45;;;40.90;;
49458;SDS011;35354;51.296;16.924;2023-03-01T02:24:43;76.40;;;40.95;;
49458;SDS011;35354;51.296;16.924;2023-03-01T02:27:17;69.18;;;39.22;;
49458;SDS011;35354;51.296;16.924;2023-03-01T02:29:46;70.43;;;37.83;;
49458;SDS011;35354;51.296;16.924;2023-03-01T02:32:12;60.38;;;34.35;;
49458;SDS011;35354;51.296;16.924;2023-03-01T02:34:40;62.00;;;34.78;;
49458;SDS011;35354;51.296;16.924;2023-03-01T02:37:10;59.72;;;34.63;;
49458;SDS011;35354;51.296;16.924;2023-03-01T02:39:40;60.53;;;36.38;;
49458;SDS011;35354;51.296;16.924;2023-03-01T02:42:11;56.85;;;32.58;;
49458;SDS011;35354;51.296;16.924;2023-03-01T02:44:39;55.63;;;33.30;;
49458;SDS011;35354;51.296;16.924;2023-03-01T02:47:05;54.70;;;31.50;;
49458;SDS011;35354;51.296;16.924;2023-03-01T02:49:32;56.03;;;32.20;;
49458;SDS011;35354;51.296;16.924;2023-03-01T02:52:08;53.70;;;33.25;;
49458;SDS011;35354;51.296;16.924;2023-03-01T02:54:41;56.35;;;32.97;;
49458;SDS011;35354;51.296;16.924;2023-03-01T02:57:13;54.67;;;30.13;;
49458;SDS011;35354;51.296;16.924;2023-03-01T02:59:39;67.85;;;34.13;;
49458;SDS011;35354;51.296;16.924;2023-03-01T03:02:06;60.47;;;32.20;;
49458;SDS011;35354;51.296;16.924;2023-03-01T03:04:32;60.95;;;33.55;;
49458;SDS011;35354;51.296;16.924;2023-03-01T03:06:58;61.28;;;32.15;;
49458;SDS011;35354;51.296;16.924;2023-03-01T03:09:23;64.38;;;33.60;;
49458;SDS011;35354;51.296;16.924;2023-03-01T03:11:49;58.53;;;32.10;;
49458;SDS011;35354;51.296;16.924;2023-03-01T03:14:15;61.42;;;32.70;;
49458;SDS011;35354;51.296;16.924;2023-03-01T03:16:42;61.45;;;34.15;;
49458;SDS011;35354;51.296;16.924;2023-03-01T03:19:09;58.78;;;31.05;;
49458;SDS011;35354;51.296;16.924;2023-03-01T03:21:35;56.92;;;31.40;;
49458;SDS011;35354;51.296;16.924;2023-03-01T03:24:00;52.63;;;30.73;;
49458;SDS011;35354;51.296;16.924;2023-03-01T03:26:26;62.92;;;31.75;;
49458;SDS011;35354;51.296;16.924;2023-03-01T03:28:52;58.85;;;31.50;;
49458;SDS011;35354;51.296;16.924;2023-03-01T03:31:17;53.10;;;29.80;;
49458;SDS011;35354;51.296;16.924;2023-03-01T03:33:43;56.88;;;31.55;;
49458;SDS011;35354;51.296;16.924;2023-03-01T03:36:08;56.35;;;32.25;;
49458;SDS011;35354;51.296;16.924;2023-03-01T03:38:38;53.38;;;31.73;;
49458;SDS011;35354;51.296;16.924;2023-03-01T03:41:05;51.95;;;30.25;;
49458;SDS011;35354;51.296;16.924;2023-03-01T03:43:33;60.83;;;32.90;;
49458;SDS011;35354;51.296;16.924;2023-03-01T03:46:00;60.03;;;33.40;;
49458;SDS011;35354;51.296;16.924;2023-03-01T03:48:30;58.35;;;32.40;;
49458;SDS011;35354;51.296;16.924;2023-03-01T03:50:59;57.53;;;31.83;;
49458;SDS011;35354;51.296;16.924;2023-03-01T03:53:25;60.47;;;29.90;;
49458;SDS011;35354;51.296;16.924;2023-03-01T03:55:52;55.80;;;31.90;;
49458;SDS011;35354;51.296;16.924;2023-03-01T03:58:19;65.28;;;32.15;;
49458;SDS011;35354;51.296;16.924;2023-03-01T04:00:47;56.08;;;30.90;;
49458;SDS011;35354;51.296;16.924;2023-03-01T04:03:14;56.80;;;31.85;;
49458;SDS011;35354;51.296;16.924;2023-03-01T04:05:41;58.03;;;31.98;;
49458;SDS011;35354;51.296;16.924;2023-03-01T04:08:07;60.65;;;32.90;;
49458;SDS011;35354;51.296;16.924;2023-03-01T04:10:40;58.83;;;31.13;;
49458;SDS011;35354;51.296;16.924;2023-03-01T04:13:13;58.05;;;32.35;;
49458;SDS011;35354;51.296;16.924;2023-03-01T04:15:41;46.97;;;28.90;;
49458;SDS011;35354;51.296;16.924;2023-03-01T04:18:13;46.88;;;28.58;;
49458;SDS011;35354;51.296;16.924;2023-03-01T04:20:40;50.20;;;29.30;;
49458;SDS011;35354;51.296;16.924;2023-03-01T04:23:07;50.25;;;29.05;;
49458;SDS011;35354;51.296;16.924;2023-03-01T04:25:49;49.53;;;29.33;;
49458;SDS011;35354;51.296;16.924;2023-03-01T04:28:21;46.00;;;27.83;;
49458;SDS011;35354;51.296;16.924;2023-03-01T04:30:49;53.85;;;30.85;;
49458;SDS011;35354;51.296;16.924;2023-03-01T04:33:15;52.72;;;29.48;;
49458;SDS011;35354;51.296;16.924;2023-03-01T04:35:40;50.25;;;29.30;;
49458;SDS011;35354;51.296;16.924;2023-03-01T04:38:06;53.55;;;29.92;;
49458;SDS011;35354;51.296;16.924;2023-03-01T04:40:31;49.75;;;29.02;;
49458;SDS011;35354;51.296;16.924;2023-03-01T04:42:57;55.15;;;30.77;;
49458;SDS011;35354;51.296;16.924;2023-03-01T04:45:22;54.00;;;30.88;;
49458;SDS011;35354;51.296;16.924;2023-03-01T04:47:47;55.78;;;31.30;;
49458;SDS011;35354;51.296;16.924;2023-03-01T04:50:15;54.78;;;30.98;;
49458;SDS011;35354;51.296;16.924;2023-03-01T04:52:42;56.05;;;32.35;;
49458;SDS011;35354;51.296;16.924;2023-03-01T04:55:09;55.55;;;30.67;;
49458;SDS011;35354;51.296;16.924;2023-03-01T04:57:34;54.17;;;30.25;;
49458;SDS011;35354;51.296;16.924;2023-03-01T05:00:00;55.60;;;29.55;;
49458;SDS011;35354;51.296;16.924;2023-03-01T05:02:26;46.30;;;28.02;;
49458;SDS011;35354;51.296;16.924;2023-03-01T05:04:51;58.65;;;32.08;;
49458;SDS011;35354;51.296;16.924;2023-03-01T05:07:16;51.78;;;29.55;;
49458;SDS011;35354;51.296;16.924;2023-03-01T05:09:47;56.10;;;30.58;;
49458;SDS011;35354;51.296;16.924;2023-03-01T05:12:13;54.80;;;31.40;;
49458;SDS011;35354;51.296;16.924;2023-03-01T05:14:39;53.97;;;31.00;;
49458;SDS011;35354;51.296;16.924;2023-03-01T05:17:06;53.55;;;30.58;;
49458;SDS011;35354;51.296;16.924;2023-03-01T05:19:32;55.83;;;31.27;;
49458;SDS011;35354;51.296;16.924;2023-03-01T05:21:58;55.50;;;30.42;;
49458;SDS011;35354;51.296;16.924;2023-03-01T05:24:26;69.05;;;37.97;;
49458;SDS011;35354;51.296;16.924;2023-03-01T05:26:52;63.50;;;35.78;;
49458;SDS011;35354;51.296;16.924;2023-03-01T05:29:18;71.70;;;36.33;;
49458;SDS011;35354;51.296;16.924;2023-03-01T05:31:50;60.47;;;33.60;;
49458;SDS011;35354;51.296;16.924;2023-03-01T05:34:33;83.95;;;42.53;;
49458;SDS011;35354;51.296;16.924;2023-03-01T05:37:00;76.57;;;40.20;;
49458;SDS011;35354;51.296;16.924;2023-03-01T05:39:26;78.25;;;40.42;;
49458;SDS011;35354;51.296;16.924;2023-03-01T05:41:54;82.18;;;42.15;;
49458;SDS011;35354;51.296;16.924;2023-03-01T05:44:21;99.22;;;49.45;;
49458;SDS011;35354;51.296;16.924;2023-03-01T05:46:46;101.40;;;52.83;;
49458;SDS011;35354;51.296;16.924;2023-03-01T05:49:13;108.90;;;54.83;;
49458;SDS011;35354;51.296;16.924;2023-03-01T05:51:42;96.72;;;49.08;;
49458;SDS011;35354;51.296;16.924;2023-03-01T05:54:09;78.55;;;43.75;;
49458;SDS011;35354;51.296;16.924;2023-03-01T05:56:35;92.20;;;47.22;;
49458;SDS011;35354;51.296;16.924;2023-03-01T05:59:01;79.47;;;44.00;;
49458;SDS011;35354;51.296;16.924;2023-03-01T06:01:27;73.90;;;42.08;;
49458;SDS011;35354;51.296;16.924;2023-03-01T06:03:53;89.68;;;47.25;;
49458;SDS011;35354;51.296;16.924;2023-03-01T06:06:18;79.82;;;43.08;;
49458;SDS011;35354;51.296;16.924;2023-03-01T06:08:44;78.22;;;43.75;;
49458;SDS011;35354;51.296;16.924;2023-03-01T06:11:09;77.82;;;45.90;;
49458;SDS011;35354;51.296;16.924;2023-03-01T06:13:34;76.65;;;42.60;;
49458;SDS011;35354;51.296;16.924;2023-03-01T06:16:00;80.75;;;45.42;;
49458;SDS011;35354;51.296;16.924;2023-03-01T06:18:25;89.82;;;50.97;;
49458;SDS011;35354;51.296;16.924;2023-03-01T06:20:53;95.72;;;55.25;;
49458;SDS011;35354;51.296;16.924;2023-03-01T06:23:19;112.50;;;63.60;;
49458;SDS011;35354;51.296;16.924;2023-03-01T06:25:45;125.72;;;68.57;;
49458;SDS011;35354;51.296;16.924;2023-03-01T06:28:10;131.77;;;72.95;;
49458;SDS011;35354;51.296;16.924;2023-03-01T06:30:35;126.28;;;72.75;;
49458;SDS011;35354;51.296;16.924;2023-03-01T06:33:01;121.63;;;67.25;;
49458;SDS011;35354;51.296;16.924;2023-03-01T06:35:28;324.70;;;170.75;;
49458;SDS011;35354;51.296;16.924;2023-03-01T06:37:56;171.88;;;95.80;;
49458;SDS011;35354;51.296;16.924;2023-03-01T06:40:22;175.82;;;96.80;;
49458;SDS011;35354;51.296;16.924;2023-03-01T06:42:48;179.68;;;99.68;;
49458;SDS011;35354;51.296;16.924;2023-03-01T06:45:15;277.13;;;138.65;;
49458;SDS011;35354;51.296;16.924;2023-03-01T06:47:41;231.57;;;117.80;;
49458;SDS011;35354;51.296;16.924;2023-03-01T06:50:07;211.68;;;110.45;;
49458;SDS011;35354;51.296;16.924;2023-03-01T06:52:33;149.30;;;86.95;;
49458;SDS011;35354;51.296;16.924;2023-03-01T06:54:59;118.30;;;66.68;;
49458;SDS011;35354;51.296;16.924;2023-03-01T06:57:24;108.03;;;58.70;;
49458;SDS011;35354;51.296;16.924;2023-03-01T06:59:50;105.35;;;56.08;;
49458;SDS011;35354;51.296;16.924;2023-03-01T07:02:15;92.57;;;51.00;;
49458;SDS011;35354;51.296;16.924;2023-03-01T07:04:41;82.63;;;46.22;;
49458;SDS011;35354;51.296;16.924;2023-03-01T07:07:07;64.60;;;38.67;;
49458;SDS011;35354;51.296;16.924;2023-03-01T07:09:32;60.35;;;38.38;;
49458;SDS011;35354;51.296;16.924;2023-03-01T07:11:58;63.15;;;34.40;;
49458;SDS011;35354;51.296;16.924;2023-03-01T07:14:23;64.82;;;38.00;;
49458;SDS011;35354;51.296;16.924;2023-03-01T07:16:50;92.97;;;52.58;;
49458;SDS011;35354;51.296;16.924;2023-03-01T07:19:16;93.22;;;51.25;;
49458;SDS011;35354;51.296;16.924;2023-03-01T07:21:41;80.88;;;44.38;;
49458;SDS011;35354;51.296;16.924;2023-03-01T07:24:07;71.50;;;40.33;;
49458;SDS011;35354;51.296;16.924;2023-03-01T07:26:32;70.90;;;39.65;;
49458;SDS011;35354;51.296;16.924;2023-03-01T07:28:58;64.15;;;36.90;;
49458;SDS011;35354;51.296;16.924;2023-03-01T07:31:24;64.93;;;37.53;;
49458;SDS011;35354;51.296;16.924;2023-03-01T07:33:52;59.60;;;36.72;;
49458;SDS011;35354;51.296;16.924;2023-03-01T07:36:18;61.60;;;39.28;;
49458;SDS011;35354;51.296;16.924;2023-03-01T07:38:43;65.13;;;39.67;;
49458;SDS011;35354;51.296;16.924;2023-03-01T07:41:08;60.40;;;37.33;;
49458;SDS011;35354;51.296;16.924;2023-03-01T07:43:34;54.83;;;35.45;;
49458;SDS011;35354;51.296;16.924;2023-03-01T07:46:00;53.38;;;33.67;;
49458;SDS011;35354;51.296;16.924;2023-03-01T07:48:26;48.17;;;33.45;;
49458;SDS011;35354;51.296;16.924;2023-03-01T07:50:52;47.30;;;28.85;;
49458;SDS011;35354;51.296;16.924;2023-03-01T07:53:17;41.92;;;28.58;;
49458;SDS011;35354;51.296;16.924;2023-03-01T07:55:43;35.92;;;24.63;;
49458;SDS011;35354;51.296;16.924;2023-03-01T07:58:08;40.10;;;26.15;;
49458;SDS011;35354;51.296;16.924;2023-03-01T08:00:33;41.40;;;26.30;;
49458;SDS011;35354;51.296;16.924;2023-03-01T08:02:59;33.83;;;23.63;;
49458;SDS011;35354;51.296;16.924;2023-03-01T08:05:25;35.97;;;23.05;;
49458;SDS011;35354;51.296;16.924;2023-03-01T08:07:51;30.83;;;22.05;;
49458;SDS011;35354;51.296;16.924;2023-03-01T08:10:16;34.92;;;21.25;;
49458;SDS011;35354;51.296;16.924;2023-03-01T08:12:42;34.05;;;22.20;;
49458;SDS011;35354;51.296;16.924;2023-03-01T08:15:08;33.00;;;22.80;;
49458;SDS011;35354;51.296;16.924;2023-03-01T08:17:33;32.45;;;21.50;;
49458;SDS011;35354;51.296;16.924;2023-03-01T08:19:59;34.35;;;22.75;;
49458;SDS011;35354;51.296;16.924;2023-03-01T08:22:24;34.35;;;23.95;;
49458;SDS011;35354;51.296;16.924;2023-03-01T08:24:50;35.75;;;24.20;;
49458;SDS011;35354;51.296;16.924;2023-03-01T08:27:16;31.48;;;20.17;;
49458;SDS011;35354;51.296;16.924;2023-03-01T08:29:42;31.73;;;22.35;;
49458;SDS011;35354;51.296;16.924;2023-03-01T08:32:07;33.60;;;22.42;;
49458;SDS011;35354;51.296;16.924;2023-03-01T08:34:32;35.45;;;21.05;;
49458;SDS011;35354;51.296;16.924;2023-03-01T08:37:00;38.88;;;22.73;;
49458;SDS011;35354;51.296;16.924;2023-03-01T08:39:26;95.90;;;52.78;;
49458;SDS011;35354;51.296;16.924;2023-03-01T08:41:52;39.72;;;24.60;;
49458;SDS011;35354;51.296;16.924;2023-03-01T08:44:17;43.38;;;28.10;;
49458;SDS011;35354;51.296;16.924;2023-03-01T08:46:43;39.08;;;27.23;;
49458;SDS011;35354;51.296;16.924;2023-03-01T08:49:14;46.70;;;32.33;;
49458;SDS011;35354;51.296;16.924;2023-03-01T08:51:41;66.73;;;47.40;;
49458;SDS011;35354;51.296;16.924;2023-03-01T08:54:09;40.92;;;29.27;;
49458;SDS011;35354;51.296;16.924;2023-03-01T08:56:36;34.75;;;25.17;;
49458;SDS011;35354;51.296;16.924;2023-03-01T08:59:02;80.07;;;58.78;;
49458;SDS011;35354;51.296;16.924;2023-03-01T09:01:27;92.05;;;71.22;;
49458;SDS011;35354;51.296;16.924;2023-03-01T09:03:53;54.42;;;40.45;;
49458;SDS011;35354;51.296;16.924;2023-03-01T09:06:18;39.45;;;28.35;;
49458;SDS011;35354;51.296;16.924;2023-03-01T09:08:45;36.35;;;25.63;;
49458;SDS011;35354;51.296;16.924;2023-03-01T09:11:14;36.30;;;23.23;;
49458;SDS011;35354;51.296;16.924;2023-03-01T09:13:41;34.58;;;24.38;;
49458;SDS011;35354;51.296;16.924;2023-03-01T09:16:07;49.38;;;33.95;;
49458;SDS011;35354;51.296;16.924;2023-03-01T09:18:34;45.10;;;30.95;;
49458;SDS011;35354;51.296;16.924;2023-03-01T09:21:01;42.63;;;29.08;;
49458;SDS011;35354;51.296;16.924;2023-03-01T09:23:27;35.10;;;24.30;;
49458;SDS011;35354;51.296;16.924;2023-03-01T09:25:52;36.53;;;25.55;;
49458;SDS011;35354;51.296;16.924;2023-03-01T09:28:18;38.78;;;27.15;;
49458;SDS011;35354;51.296;16.924;2023-03-01T09:30:43;37.78;;;27.10;;
49458;SDS011;35354;51.296;16.924;2023-03-01T09:33:08;40.92;;;28.27;;
49458;SDS011;35354;51.296;16.924;2023-03-01T09:35:39;33.60;;;23.03;;
49458;SDS011;35354;51.296;16.924;2023-03-01T09:38:10;35.13;;;23.35;;
49458;SDS011;35354;51.296;16.924;2023-03-01T09:40:36;48.92;;;36.72;;
49458;SDS011;35354;51.296;16.924;2023-03-01T09:46:05;37.67;;;27.23;;
49458;SDS011;35354;51.296;16.924;2023-03-01T09:48:46;34.25;;;23.48;;
49458;SDS011;35354;51.296;16.924;2023-03-01T09:51:27;34.72;;;22.42;;
49458;SDS011;35354;51.296;16.924;2023-03-01T09:53:56;34.08;;;21.92;;
49458;SDS011;35354;51.296;16.924;2023-03-01T09:56:44;35.28;;;23.65;;
49458;SDS011;35354;51.296;16.924;2023-03-01T10:01:58;35.78;;;25.27;;
49458;SDS011;35354;51.296;16.924;2023-03-01T10:04:36;42.60;;;29.23;;
49458;SDS011;35354;51.296;16.924;2023-03-01T10:09:39;36.28;;;24.77;;
49458;SDS011;35354;51.296;16.924;2023-03-01T10:12:14;47.60;;;30.70;;
49458;SDS011;35354;51.296;16.924;2023-03-01T10:20:25;37.65;;;24.33;;
49458;SDS011;35354;51.296;16.924;2023-03-01T10:22:50;37.38;;;24.65;;
49458;SDS011;35354;51.296;16.924;2023-03-01T10:25:23;38.72;;;24.55;;
49458;SDS011;35354;51.296;16.924;2023-03-01T10:28:23;34.55;;;22.98;;
49458;SDS011;35354;51.296;16.924;2023-03-01T10:30:53;35.70;;;23.48;;
49458;SDS011;35354;51.296;16.924;2023-03-01T10:33:23;30.35;;;21.10;;
49458;SDS011;35354;51.296;16.924;2023-03-01T10:35:52;55.40;;;33.65;;
49458;SDS011;35354;51.296;16.924;2023-03-01T10:38:18;49.35;;;28.67;;
49458;SDS011;35354;51.296;16.924;2023-03-01T10:43:44;38.00;;;23.20;;
49458;SDS011;35354;51.296;16.924;2023-03-01T10:51:46;34.83;;;23.73;;
49458;SDS011;35354;51.296;16.924;2023-03-01T10:54:29;34.03;;;23.40;;
49458;SDS011;35354;51.296;16.924;2023-03-01T10:56:58;35.58;;;23.85;;
49458;SDS011;35354;51.296;16.924;2023-03-01T10:59:27;35.47;;;24.08;;
49458;SDS011;35354;51.296;16.924;2023-03-01T11:02:02;43.15;;;28.70;;
49458;SDS011;35354;51.296;16.924;2023-03-01T11:07:47;49.30;;;30.60;;
49458;SDS011;35354;51.296;16.924;2023-03-01T11:10:23;58.28;;;37.33;;
49458;SDS011;35354;51.296;16.924;2023-03-01T11:12:51;56.53;;;30.90;;
49458;SDS011;35354;51.296;16.924;2023-03-01T11:15:22;49.22;;;29.33;;
49458;SDS011;35354;51.296;16.924;2023-03-01T11:17:53;57.65;;;35.50;;
49458;SDS011;35354;51.296;16.924;2023-03-01T11:22:54;46.85;;;31.30;;
49458;SDS011;35354;51.296;16.924;2023-03-01T11:25:26;56.05;;;36.88;;
49458;SDS011;35354;51.296;16.924;2023-03-01T11:27:57;51.28;;;28.35;;
49458;SDS011;35354;51.296;16.924;2023-03-01T11:33:10;44.92;;;28.73;;
49458;SDS011;35354;51.296;16.924;2023-03-01T11:35:48;39.67;;;26.35;;
49458;SDS011;35354;51.296;16.924;2023-03-01T11:38:25;39.58;;;25.27;;
49458;SDS011;35354;51.296;16.924;2023-03-01T11:40:59;49.60;;;29.38;;
49458;SDS011;35354;51.296;16.924;2023-03-01T11:49:01;42.22;;;27.30;;
49458;SDS011;35354;51.296;16.924;2023-03-01T11:56:52;48.13;;;28.33;;
49458;SDS011;35354;51.296;16.924;2023-03-01T12:07:39;54.38;;;27.45;;
49458;SDS011;35354;51.296;16.924;2023-03-01T12:10:41;36.22;;;24.80;;
49458;SDS011;35354;51.296;16.924;2023-03-01T12:16:09;39.45;;;23.85;;
49458;SDS011;35354;51.296;16.924;2023-03-01T12:19:04;42.47;;;25.02;;
49458;SDS011;35354;51.296;16.924;2023-03-01T12:24:47;32.50;;;21.77;;
49458;SDS011;35354;51.296;16.924;2023-03-01T12:27:22;40.65;;;24.98;;
49458;SDS011;35354;51.296;16.924;2023-03-01T12:33:05;69.82;;;37.88;;
49458;SDS011;35354;51.296;16.924;2023-03-01T12:38:20;34.08;;;22.02;;
49458;SDS011;35354;51.296;16.924;2023-03-01T12:41:08;38.53;;;24.58;;
49458;SDS011;35354;51.296;16.924;2023-03-01T12:51:48;25.45;;;15.65;;
49458;SDS011;35354;51.296;16.924;2023-03-01T12:54:21;31.52;;;19.23;;
49458;SDS011;35354;51.296;16.924;2023-03-01T12:56:53;35.85;;;20.67;;
49458;SDS011;35354;51.296;16.924;2023-03-01T13:07:33;35.83;;;22.25;;
49458;SDS011;35354;51.296;16.924;2023-03-01T13:10:14;32.75;;;21.20;;
49458;SDS011;35354;51.296;16.924;2023-03-01T13:20:19;29.50;;;18.25;;
49458;SDS011;35354;51.296;16.924;2023-03-01T13:22:46;32.78;;;20.30;;
49458;SDS011;35354;51.296;16.924;2023-03-01T13:25:19;30.55;;;20.35;;
49458;SDS011;35354;51.296;16.924;2023-03-01T13:27:45;32.20;;;21.05;;
49458;SDS011;35354;51.296;16.924;2023-03-01T13:35:52;34.55;;;20.60;;
49458;SDS011;35354;51.296;16.924;2023-03-01T13:41:09;34.28;;;21.80;;
49458;SDS011;35354;51.296;16.924;2023-03-01T13:43:35;59.00;;;30.73;;
49458;SDS011;35354;51.296;16.924;2023-03-01T13:46:21;32.80;;;21.42;;
49458;SDS011;35354;51.296;16.924;2023-03-01T13:48:53;30.27;;;20.00;;
49458;SDS011;35354;51.296;16.924;2023-03-01T13:51:23;28.88;;;18.88;;
49458;SDS011;35354;51.296;16.924;2023-03-01T13:53:50;26.80;;;17.85;;
49458;SDS011;35354;51.296;16.924;2023-03-01T13:56:20;26.33;;;16.50;;
49458;SDS011;35354;51.296;16.924;2023-03-01T13:58:55;30.75;;;19.05;;
49458;SDS011;35354;51.296;16.924;2023-03-01T14:01:32;31.83;;;21.00;;
49458;SDS011;35354;51.296;16.924;2023-03-01T14:04:00;29.10;;;19.13;;
49458;SDS011;35354;51.296;16.924;2023-03-01T14:06:28;29.58;;;18.80;;
49458;SDS011;35354;51.296;16.924;2023-03-01T14:09:17;33.50;;;19.55;;
49458;SDS011;35354;51.296;16.924;2023-03-01T14:17:27;32.13;;;20.38;;
49458;SDS011;35354;51.296;16.924;2023-03-01T14:19:55;29.23;;;21.02;;
49458;SDS011;35354;51.296;16.924;2023-03-01T14:22:24;32.13;;;19.92;;
49458;SDS011;35354;51.296;16.924;2023-03-01T14:27:23;27.67;;;15.70;;
49458;SDS011;35354;51.296;16.924;2023-03-01T14:29:55;22.02;;;15.75;;
49458;SDS011;35354;51.296;16.924;2023-03-01T14:32:28;25.65;;;17.48;;
49458;SDS011;35354;51.296;16.924;2023-03-01T14:34:56;28.20;;;18.48;;
49458;SDS011;35354;51.296;16.924;2023-03-01T14:37:27;28.10;;;17.08;;
49458;SDS011;35354;51.296;16.924;2023-03-01T14:40:00;28.48;;;16.17;;
49458;SDS011;35354;51.296;16.924;2023-03-01T14:42:28;36.35;;;20.05;;
49458;SDS011;35354;51.296;16.924;2023-03-01T14:44:58;32.80;;;19.40;;
49458;SDS011;35354;51.296;16.924;2023-03-01T14:47:33;38.58;;;22.95;;
49458;SDS011;35354;51.296;16.924;2023-03-01T14:50:07;37.63;;;22.23;;
49458;SDS011;35354;51.296;16.924;2023-03-01T14:52:41;28.73;;;19.08;;
49458;SDS011;35354;51.296;16.924;2023-03-01T14:55:15;30.05;;;19.65;;
49458;SDS011;35354;51.296;16.924;2023-03-01T14:57:43;71.10;;;38.33;;
49458;SDS011;35354;51.296;16.924;2023-03-01T15:00:16;40.28;;;21.63;;
49458;SDS011;35354;51.296;16.924;2023-03-01T15:02:45;36.92;;;20.80;;
49458;SDS011;35354;51.296;16.924;2023-03-01T15:05:14;47.50;;;28.25;;
49458;SDS011;35354;51.296;16.924;2023-03-01T15:07:42;41.00;;;25.60;;
49458;SDS011;35354;51.296;16.924;2023-03-01T15:10:17;36.25;;;22.58;;
49458;SDS011;35354;51.296;16.924;2023-03-01T15:12:46;34.40;;;22.10;;
49458;SDS011;35354;51.296;16.924;2023-03-01T15:18:22;33.72;;;21.35;;
49458;SDS011;35354;51.296;16.924;2023-03-01T15:20:52;40.97;;;23.77;;
49458;SDS011;35354;51.296;16.924;2023-03-01T15:23:22;51.33;;;27.60;;
49458;SDS011;35354;51.296;16.924;2023-03-01T15:25:53;48.97;;;28.17;;
49458;SDS011;35354;51.296;16.924;2023-03-01T15:28:27;56.80;;;30.30;;
49458;SDS011;35354;51.296;16.924;2023-03-01T15:31:00;40.45;;;24.70;;
49458;SDS011;35354;51.296;16.924;2023-03-01T15:33:30;44.85;;;25.73;;
49458;SDS011;35354;51.296;16.924;2023-03-01T15:36:02;50.95;;;29.13;;
49458;SDS011;35354;51.296;16.924;2023-03-01T15:41:03;56.65;;;32.95;;
49458;SDS011;35354;51.296;16.924;2023-03-01T15:43:44;65.18;;;36.40;;
49458;SDS011;35354;51.296;16.924;2023-03-01T15:48:48;69.82;;;36.30;;
49458;SDS011;35354;51.296;16.924;2023-03-01T15:51:17;71.15;;;37.25;;
49458;SDS011;35354;51.296;16.924;2023-03-01T15:53:48;68.72;;;35.85;;
49458;SDS011;35354;51.296;16.924;2023-03-01T15:56:16;63.33;;;34.70;;
49458;SDS011;35354;51.296;16.924;2023-03-01T15:58:41;80.03;;;41.05;;
49458;SDS011;35354;51.296;16.924;2023-03-01T16:01:13;71.95;;;39.20;;
49458;SDS011;35354;51.296;16.924;2023-03-01T16:03:41;55.83;;;31.60;;
49458;SDS011;35354;51.296;16.924;2023-03-01T16:06:08;54.80;;;30.67;;
49458;SDS011;35354;51.296;16.924;2023-03-01T16:08:34;56.92;;;30.15;;
49458;SDS011;35354;51.296;16.924;2023-03-01T16:11:00;50.75;;;29.30;;
49458;SDS011;35354;51.296;16.924;2023-03-01T16:13:28;61.70;;;35.67;;